Time;durP1;ratioP1;P1;durP2;ratioP2;P2;SDS_P1;SDS_P2;PMS_P1;PMS_P2;Temp;Humidity;BMP_temperature;BMP_pressure;BME280_temperature;BME280_humidity;BME280_pressure;Samples;Min_cycle;Max_cycle;Signal;HPM_P1;HPM_P2
2023/06/16 00:01:53;;;;;;;4.83;3.30;;;15.50;99.90;;;;;;5054048;28;20296;-60
2023/06/16 00:04:21;;;;;;;6.57;3.50;;;15.50;99.90;;;;;;5054127;28;20234;-58
2023/06/16 00:06:48;;;;;;;4.20;3.57;;;15.40;99.90;;;;;;5053519;28;20667;-60
2023/06/16 00:09:14;;;;;;;4.40;3.67;;;15.40;99.90;;;;;;5053779;28;20206;-60
2023/06/16 00:11:42;;;;;;;4.20;3.20;;;15.40;99.90;;;;;;5053512;28;20237;-61
2023/06/16 00:14:09;;;;;;;3.17;2.88;;;15.40;99.90;;;;;;5053972;28;20229;-60
2023/06/16 00:16:36;;;;;;;4.10;3.37;;;15.40;99.90;;;;;;5053566;28;20206;-59
2023/06/16 00:19:03;;;;;;;5.78;3.15;;;15.40;99.90;;;;;;5053574;28;20642;-59
2023/06/16 00:21:37;;;;;;;3.28;2.97;;;15.30;99.90;;;;;;5053613;28;20205;-59
2023/06/16 00:24:05;;;;;;;3.97;2.73;;;15.30;99.90;;;;;;5053635;28;20335;-59
2023/06/16 00:26:31;;;;;;;3.80;3.37;;;15.30;99.90;;;;;;5053302;28;20210;-60
2023/06/16 00:28:59;;;;;;;4.75;3.40;;;15.30;99.90;;;;;;5053709;28;20205;-60
2023/06/16 00:31:26;;;;;;;4.38;2.88;;;15.10;99.90;;;;;;5053385;28;20229;-60
2023/06/16 00:33:53;;;;;;;4.15;3.40;;;15.10;99.90;;;;;;5053435;28;20226;-59
2023/06/16 00:36:20;;;;;;;3.90;3.50;;;15.10;99.90;;;;;;5053332;28;20201;-60
2023/06/16 00:38:47;;;;;;;3.57;3.03;;;15.10;99.90;;;;;;5053395;28;20221;-58
2023/06/16 00:41:14;;;;;;;3.87;3.47;;;15.10;99.90;;;;;;5053152;28;20704;-59
2023/06/16 00:43:41;;;;;;;3.83;2.90;;;15.00;99.90;;;;;;5053116;28;20253;-60
2023/06/16 00:46:12;;;;;;;3.40;3.10;;;15.00;99.90;;;;;;5053037;28;20214;-60
2023/06/16 00:48:38;;;;;;;3.60;3.30;;;14.90;99.90;;;;;;5053007;28;20205;-60
2023/06/16 00:51:05;;;;;;;3.57;3.00;;;14.90;99.90;;;;;;5053045;28;20225;-59
2023/06/16 00:53:33;;;;;;;5.17;3.23;;;14.90;99.90;;;;;;5052744;28;20229;-60
2023/06/16 00:56:00;;;;;;;3.57;3.27;;;14.80;99.90;;;;;;5052662;28;20255;-59
2023/06/16 00:58:27;;;;;;;3.47;3.17;;;14.80;99.90;;;;;;5053229;28;20292;-61
2023/06/16 01:00:54;;;;;;;4.67;3.67;;;14.70;99.90;;;;;;5053122;28;20210;-59
2023/06/16 01:03:22;;;;;;;4.00;3.50;;;14.70;99.90;;;;;;5052596;28;20237;-60
2023/06/16 01:05:49;;;;;;;5.03;3.33;;;14.70;99.90;;;;;;5053110;28;20667;-60
2023/06/16 01:08:26;;;;;;;3.43;3.13;;;14.70;99.90;;;;;;5052877;28;20584;-60
2023/06/16 01:10:58;;;;;;;4.63;3.30;;;14.70;99.90;;;;;;5052540;28;20251;-60
2023/06/16 01:13:31;;;;;;;6.67;3.47;;;14.60;99.90;;;;;;5052596;28;20234;-60
2023/06/16 01:16:02;;;;;;;4.37;3.63;;;14.50;99.90;;;;;;5052196;28;20687;-60
2023/06/16 01:18:32;;;;;;;4.90;3.37;;;14.50;99.90;;;;;;5051754;28;20212;-59
2023/06/16 01:21:08;;;;;;;6.00;3.47;;;14.50;99.90;;;;;;5052534;28;20232;-61
2023/06/16 01:23:52;;;;;;;6.40;3.10;;;14.40;99.90;;;;;;5052493;28;20236;-55
2023/06/16 01:26:22;;;;;;;4.47;3.53;;;14.50;99.90;;;;;;5052034;28;20250;-56
2023/06/16 01:28:50;;;;;;;4.20;3.80;;;14.50;99.90;;;;;;5052310;28;20652;-56
2023/06/16 01:31:18;;;;;;;4.37;3.50;;;14.40;99.90;;;;;;5052384;28;20229;-55
2023/06/16 01:33:46;;;;;;;3.90;3.50;;;14.40;99.90;;;;;;5052342;28;20229;-56
2023/06/16 01:36:14;;;;;;;4.97;3.50;;;14.40;99.90;;;;;;5051607;28;20631;-56
2023/06/16 01:38:43;;;;;;;4.00;3.40;;;14.40;99.90;;;;;;5051883;28;20283;-56
2023/06/16 01:41:11;;;;;;;4.07;3.67;;;14.50;99.90;;;;;;5052026;28;20205;-55
2023/06/16 01:43:40;;;;;;;3.93;3.50;;;14.50;99.90;;;;;;5052072;28;20221;-57
2023/06/16 01:46:07;;;;;;;4.73;3.70;;;14.50;99.90;;;;;;5051656;28;20214;-56
2023/06/16 01:48:34;;;;;;;4.00;3.50;;;14.40;99.90;;;;;;5051919;28;20205;-56
2023/06/16 01:51:02;;;;;;;4.53;3.47;;;14.30;99.90;;;;;;5051654;28;20732;-56
2023/06/16 01:53:28;;;;;;;6.03;3.60;;;14.20;99.90;;;;;;5051593;28;20573;-57
2023/06/16 01:55:55;;;;;;;5.97;3.20;;;14.20;99.90;;;;;;5051137;28;20209;-57
2023/06/16 01:58:25;;;;;;;5.57;3.60;;;14.20;99.90;;;;;;5051800;28;20209;-56
2023/06/16 02:00:59;;;;;;;4.90;3.60;;;14.20;99.90;;;;;;5051448;28;20632;-55
2023/06/16 02:03:29;;;;;;;5.27;3.37;;;14.30;99.90;;;;;;5051447;28;20568;-55
2023/06/16 02:06:00;;;;;;;4.60;3.77;;;14.30;99.90;;;;;;5051383;28;20205;-55
2023/06/16 02:08:30;;;;;;;4.53;3.67;;;14.40;99.90;;;;;;5051366;28;20209;-57
2023/06/16 02:10:58;;;;;;;6.37;4.00;;;14.40;99.90;;;;;;5051625;28;20220;-56
2023/06/16 02:13:26;;;;;;;3.80;3.37;;;14.50;99.90;;;;;;5051494;28;20229;-56
2023/06/16 02:15:52;;;;;;;4.23;3.70;;;14.50;99.90;;;;;;5051077;28;20205;-56
2023/06/16 02:18:24;;;;;;;5.63;3.50;;;14.50;99.90;;;;;;5051358;28;20209;-57
2023/06/16 02:20:51;;;;;;;4.10;3.70;;;14.60;99.90;;;;;;5051103;28;20228;-55
2023/06/16 02:23:17;;;;;;;3.23;2.93;;;14.60;99.90;;;;;;5051196;28;20229;-56
2023/06/16 02:25:44;;;;;;;5.17;3.50;;;14.70;99.90;;;;;;5051395;28;20209;-56
2023/06/16 02:28:11;;;;;;;3.90;3.50;;;14.70;99.90;;;;;;5051238;28;20237;-55
2023/06/16 02:30:39;;;;;;;4.20;3.67;;;14.70;99.90;;;;;;5051008;28;20217;-57
2023/06/16 02:33:05;;;;;;;4.20;3.60;;;14.80;99.90;;;;;;5050897;28;20324;-56
2023/06/16 02:35:32;;;;;;;4.40;3.70;;;14.80;99.90;;;;;;5050861;28;20680;-55
2023/06/16 02:38:00;;;;;;;4.23;3.73;;;14.80;99.90;;;;;;5051089;28;20619;-56
2023/06/16 02:40:26;;;;;;;7.30;3.50;;;14.80;99.90;;;;;;5051164;28;20232;-55
2023/06/16 02:42:53;;;;;;;5.87;3.90;;;14.90;99.90;;;;;;5050995;28;20311;-56
2023/06/16 02:45:20;;;;;;;7.83;3.87;;;14.90;99.90;;;;;;5051058;28;20246;-56
2023/06/16 02:47:48;;;;;;;4.57;4.00;;;14.90;99.90;;;;;;5050673;28;20206;-58
2023/06/16 02:50:15;;;;;;;4.37;3.63;;;15.10;99.90;;;;;;5050909;28;20279;-56
2023/06/16 02:52:42;;;;;;;4.35;3.63;;;15.20;99.90;;;;;;5050943;28;20279;-56
2023/06/16 02:55:09;;;;;;;5.17;3.63;;;15.40;99.90;;;;;;5051141;28;20233;-56
2023/06/16 02:57:36;;;;;;;5.68;3.50;;;15.40;99.90;;;;;;5050531;28;20758;-55
2023/06/16 03:00:05;;;;;;;7.20;3.70;;;15.60;99.90;;;;;;5050844;28;20205;-56
2023/06/16 03:02:31;;;;;;;4.10;3.70;;;15.80;99.90;;;;;;5050554;28;20222;-56
2023/06/16 03:05:01;;;;;;;3.65;3.33;;;15.70;99.90;;;;;;5051072;28;20213;-56
2023/06/16 03:07:29;;;;;;;3.57;3.27;;;15.70;99.90;;;;;;5050674;28;20259;-56
2023/06/16 03:09:56;;;;;;;4.77;3.70;;;15.70;99.90;;;;;;5050649;28;20232;-57
2023/06/16 03:12:23;;;;;;;35.03;31.20;;;15.70;99.90;;;;;;5050546;28;20229;-56
2023/06/16 03:14:50;;;;;;;4.50;3.77;;;15.70;99.90;;;;;;5050734;28;20296;-56
2023/06/16 03:17:20;;;;;;;4.72;3.28;;;15.70;99.90;;;;;;5050567;28;20561;-56
2023/06/16 03:19:48;;;;;;;5.22;3.50;;;15.70;99.90;;;;;;5050760;28;20210;-57
2023/06/16 03:22:16;;;;;;;4.10;3.70;;;15.70;99.90;;;;;;5050563;28;20202;-58
2023/06/16 03:24:44;;;;;;;4.00;3.60;;;15.60;99.90;;;;;;5050738;28;20205;-57
2023/06/16 03:27:11;;;;;;;4.80;3.72;;;15.60;99.90;;;;;;5050046;28;20201;-56
2023/06/16 03:29:38;;;;;;;7.03;3.83;;;15.50;99.90;;;;;;5050412;28;20236;-56
2023/06/16 03:32:05;;;;;;;4.53;3.67;;;15.40;99.90;;;;;;5050601;28;20225;-56
2023/06/16 03:34:32;;;;;;;4.10;3.70;;;15.30;99.90;;;;;;5050543;28;20201;-56
2023/06/16 03:36:59;;;;;;;4.13;3.40;;;15.30;99.90;;;;;;5049846;28;20617;-56
2023/06/16 03:39:27;;;;;;;4.33;3.70;;;15.30;99.90;;;;;;5050645;28;20296;-56
2023/06/16 03:41:54;;;;;;;6.80;3.90;;;15.30;99.90;;;;;;5050623;28;20617;-58
2023/06/16 03:44:21;;;;;;;4.70;4.17;;;15.30;99.90;;;;;;5053749;28;20232;-55
2023/06/16 03:46:47;;;;;;;4.07;3.63;;;15.20;99.90;;;;;;5053993;28;20300;-58
2023/06/16 03:49:14;;;;;;;8.90;3.77;;;15.20;99.90;;;;;;5054278;28;20208;-56
2023/06/16 03:51:41;;;;;;;4.83;3.83;;;15.20;99.90;;;;;;5054140;28;20255;-56
2023/06/16 03:54:07;;;;;;;4.87;3.87;;;15.20;99.90;;;;;;5053953;28;20226;-56
2023/06/16 03:56:36;;;;;;;4.70;3.53;;;15.30;99.90;;;;;;5053564;28;20206;-56
2023/06/16 03:59:03;;;;;;;8.30;4.20;;;15.40;99.90;;;;;;5053875;28;20259;-57
2023/06/16 04:01:30;;;;;;;5.43;3.47;;;15.50;99.90;;;;;;5053945;28;20209;-58
2023/06/16 04:03:57;;;;;;;7.87;5.50;;;15.50;99.90;;;;;;5054034;28;20229;-56
2023/06/16 04:06:23;;;;;;;6.32;4.03;;;15.60;99.90;;;;;;5053583;28;20201;-56
2023/06/16 04:08:51;;;;;;;4.50;3.93;;;15.60;99.90;;;;;;5054002;28;20212;-56
2023/06/16 04:11:18;;;;;;;4.17;3.67;;;15.60;99.90;;;;;;5053586;28;20252;-56
2023/06/16 04:13:47;;;;;;;4.00;3.60;;;15.60;99.90;;;;;;5053674;28;20229;-57
2023/06/16 04:16:14;;;;;;;5.05;3.97;;;15.60;99.90;;;;;;5053268;28;20209;-59
2023/06/16 04:18:41;;;;;;;4.32;3.83;;;15.60;99.90;;;;;;5053672;28;20209;-57
2023/06/16 04:21:07;;;;;;;4.93;3.70;;;15.60;99.90;;;;;;5053658;28;20207;-55
2023/06/16 04:23:35;;;;;;;6.33;4.10;;;15.60;99.90;;;;;;5053325;28;20233;-57
2023/06/16 04:26:02;;;;;;;6.18;4.00;;;15.60;99.90;;;;;;5053046;28;20231;-55
2023/06/16 04:28:30;;;;;;;6.20;4.00;;;15.60;99.90;;;;;;5053415;28;20209;-56
2023/06/16 04:30:58;;;;;;;6.07;4.13;;;15.60;99.90;;;;;;5053450;28;20206;-57
2023/06/16 04:33:24;;;;;;;8.83;3.87;;;15.70;99.90;;;;;;5053302;28;20229;-57
2023/06/16 04:35:51;;;;;;;4.38;3.78;;;15.70;99.90;;;;;;5053012;28;20205;-57
2023/06/16 04:38:19;;;;;;;6.23;4.10;;;15.80;99.90;;;;;;5053071;28;20202;-56
2023/06/16 04:40:47;;;;;;;6.45;4.88;;;16.00;99.90;;;;;;5053351;28;20263;-56
2023/06/16 04:43:13;;;;;;;5.65;4.18;;;16.10;99.90;;;;;;5053275;28;20768;-56
2023/06/16 04:45:40;;;;;;;6.68;4.28;;;16.30;99.90;;;;;;5053049;28;20228;-57
2023/06/16 04:48:08;;;;;;;4.78;4.25;;;17.10;99.90;;;;;;5052985;28;20206;-57
2023/06/16 04:50:35;;;;;;;4.82;3.72;;;18.40;99.90;;;;;;5052804;28;20236;-59
2023/06/16 04:53:03;;;;;;;5.07;3.67;;;19.90;99.90;;;;;;5052470;28;20695;-58
2023/06/16 04:55:30;;;;;;;4.10;3.70;;;21.30;99.90;;;;;;5052457;28;20240;-58
2023/06/16 04:57:56;;;;;;;4.43;3.58;;;22.70;98.50;;;;;;5052785;28;20292;-56
2023/06/16 05:00:23;;;;;;;4.68;3.40;;;23.80;94.90;;;;;;5052583;28;20756;-57
2023/06/16 05:02:51;;;;;;;7.75;3.83;;;24.70;92.30;;;;;;5052817;28;20229;-57
2023/06/16 05:05:20;;;;;;;5.07;3.67;;;25.70;88.60;;;;;;5052595;28;20259;-58
2023/06/16 05:07:47;;;;;;;9.10;3.70;;;26.60;82.90;;;;;;5052796;28;20209;-56
2023/06/16 05:10:14;;;;;;;7.10;3.30;;;27.40;78.30;;;;;;5053292;28;20206;-57
2023/06/16 05:12:41;;;;;;;3.65;3.35;;;28.20;75.30;;;;;;5052298;28;20289;-55
2023/06/16 05:15:08;;;;;;;5.65;3.60;;;28.80;71.30;;;;;;5052330;28;20277;-58
2023/06/16 05:17:36;;;;;;;5.78;3.80;;;29.40;68.50;;;;;;5052154;28;20275;-57
2023/06/16 05:20:03;;;;;;;6.93;3.30;;;29.80;66.30;;;;;;5052689;28;20209;-55
2023/06/16 05:22:31;;;;;;;5.13;3.72;;;30.30;63.70;;;;;;5052388;28;20351;-55
2023/06/16 05:24:58;;;;;;;4.93;3.13;;;30.50;62.90;;;;;;5052488;28;20793;-56
2023/06/16 05:27:25;;;;;;;3.67;3.17;;;31.10;60.60;;;;;;5052082;28;20216;-55
2023/06/16 05:29:52;;;;;;;6.28;3.58;;;31.60;59.50;;;;;;5052333;28;20293;-56
2023/06/16 05:32:21;;;;;;;5.07;3.63;;;31.70;57.90;;;;;;5052228;28;20222;-54
2023/06/16 05:34:48;;;;;;;7.55;3.60;;;31.40;58.60;;;;;;5052434;28;20209;-55
2023/06/16 05:37:16;;;;;;;3.42;3.03;;;31.60;58.20;;;;;;5052089;28;20201;-55
2023/06/16 05:39:45;;;;;;;5.07;3.58;;;32.20;56.40;;;;;;5052363;28;20209;-54
2023/06/16 05:42:13;;;;;;;5.35;3.50;;;32.70;56.00;;;;;;5051983;28;20215;-53
2023/06/16 05:44:40;;;;;;;7.10;3.90;;;33.20;55.30;;;;;;5051742;28;20713;-61
2023/06/16 05:47:07;;;;;;;6.35;3.78;;;33.70;53.10;;;;;;5046695;28;20283;-61
2023/06/16 05:49:34;;;;;;;5.80;3.70;;;34.20;52.10;;;;;;5051405;28;20361;-56
2023/06/16 05:52:02;;;;;;;3.78;3.40;;;33.70;52.20;;;;;;5051902;28;20216;-54
2023/06/16 05:54:29;;;;;;;5.07;4.00;;;33.30;53.20;;;;;;5051661;28;20255;-55
2023/06/16 05:56:57;;;;;;;5.93;3.63;;;32.90;53.20;;;;;;5051644;28;20217;-53
2023/06/16 05:59:25;;;;;;;4.38;3.35;;;32.20;53.80;;;;;;5051629;28;20231;-54
2023/06/16 06:01:52;;;;;;;5.72;3.60;;;32.30;54.10;;;;;;5051156;28;20206;-54
2023/06/16 06:04:22;;;;;;;3.65;3.30;;;32.30;54.10;;;;;;5051487;28;20222;-54
2023/06/16 06:06:49;;;;;;;4.32;3.45;;;32.30;54.00;;;;;;5051027;28;20205;-54
2023/06/16 06:09:16;;;;;;;6.50;3.85;;;31.90;54.40;;;;;;5051558;28;20333;-54
2023/06/16 06:11:43;;;;;;;4.40;3.60;;;31.60;54.90;;;;;;5051645;28;20205;-55
2023/06/16 06:14:11;;;;;;;7.47;3.58;;;32.40;53.70;;;;;;5050675;28;20229;-54
2023/06/16 06:16:38;;;;;;;5.30;3.72;;;33.70;52.30;;;;;;5050978;28;20343;-53
2023/06/16 06:19:05;;;;;;;5.63;3.40;;;34.70;49.40;;;;;;5051777;28;20209;-56
2023/06/16 06:21:33;;;;;;;5.45;3.25;;;34.80;48.70;;;;;;5051520;28;20256;-53
2023/06/16 06:24:00;;;;;;;4.57;3.58;;;34.80;48.90;;;;;;5051153;28;20234;-54
2023/06/16 06:26:27;;;;;;;5.53;4.75;;;35.10;48.80;;;;;;5050829;28;20743;-54
2023/06/16 06:28:54;;;;;;;5.78;3.80;;;36.00;48.20;;;;;;5051129;28;20205;-57
2023/06/16 06:31:22;;;;;;;6.07;3.50;;;37.00;45.60;;;;;;5050844;28;20225;-58
2023/06/16 06:33:48;;;;;;;6.10;4.07;;;37.70;44.70;;;;;;5050952;28;20722;-58
2023/06/16 06:36:22;;;;;;;6.50;3.60;;;38.50;43.30;;;;;;5050956;28;20217;-57
2023/06/16 06:38:48;;;;;;;5.07;3.67;;;39.00;42.90;;;;;;5050888;28;20217;-58
2023/06/16 06:41:16;;;;;;;5.93;3.40;;;38.90;42.70;;;;;;5050688;28;20209;-59
2023/06/16 06:43:43;;;;;;;7.78;3.35;;;39.20;42.60;;;;;;5051210;28;20226;-60
2023/06/16 06:46:09;;;;;;;4.35;3.42;;;39.40;42.00;;;;;;5050800;28;20212;-59
2023/06/16 06:48:38;;;;;;;5.30;3.45;;;38.90;41.80;;;;;;5050958;28;20201;-59
2023/06/16 06:51:04;;;;;;;4.10;3.70;;;39.20;41.50;;;;;;5050599;28;20212;-62
2023/06/16 06:53:32;;;;;;;8.70;3.45;;;39.90;41.10;;;;;;5050909;28;20279;-60
2023/06/16 06:55:59;;;;;;;4.18;3.45;;;40.80;40.10;;;;;;5050412;28;20628;-59
2023/06/16 06:58:26;;;;;;;7.82;3.83;;;41.30;38.90;;;;;;5051139;28;20239;-60
2023/06/16 07:00:52;;;;;;;4.65;3.20;;;41.60;38.60;;;;;;5050608;28;20220;-62
2023/06/16 07:03:19;;;;;;;4.03;3.63;;;42.10;37.80;;;;;;5050583;28;20232;-62
2023/06/16 07:05:47;;;;;;;4.28;3.50;;;42.40;37.00;;;;;;5050837;28;20209;-62
2023/06/16 07:08:14;;;;;;;4.82;3.60;;;42.40;37.00;;;;;;5051161;28;20209;-60
2023/06/16 07:10:41;;;;;;;3.55;3.10;;;40.80;38.30;;;;;;5051275;28;20205;-61
2023/06/16 07:13:07;;;;;;;5.90;3.47;;;40.00;39.30;;;;;;5050874;28;20224;-61
2023/06/16 07:15:34;;;;;;;5.45;3.40;;;40.40;39.00;;;;;;5050358;28;20205;-61
2023/06/16 07:18:01;;;;;;;3.65;3.08;;;40.70;38.50;;;;;;5053133;28;20208;-61
2023/06/16 07:20:28;;;;;;;4.82;3.35;;;40.60;38.50;;;;;;5054583;28;20205;-62
2023/06/16 07:22:56;;;;;;;4.90;3.13;;;40.60;38.50;;;;;;5055232;28;20232;-60
2023/06/16 07:25:22;;;;;;;4.32;3.40;;;41.20;38.10;;;;;;5054700;28;20205;-62
2023/06/16 07:27:50;;;;;;;3.40;3.10;;;40.60;38.00;;;;;;5054520;28;20295;-62
2023/06/16 07:30:17;;;;;;;5.05;3.15;;;40.80;38.30;;;;;;5054704;28;20212;-62
2023/06/16 07:32:45;;;;;;;4.30;3.33;;;41.40;37.90;;;;;;5054425;28;20224;-60
2023/06/16 07:35:12;;;;;;;6.90;3.05;;;41.70;37.10;;;;;;5054484;28;20201;-61
2023/06/16 07:37:39;;;;;;;3.72;3.40;;;41.90;36.90;;;;;;5054111;28;20201;-59
2023/06/16 07:40:09;;;;;;;4.53;3.45;;;42.80;35.80;;;;;;5054200;28;20201;-60
2023/06/16 07:42:36;;;;;;;3.72;3.30;;;42.70;35.40;;;;;;5054405;28;20225;-61
2023/06/16 07:45:04;;;;;;;5.50;3.10;;;42.40;35.70;;;;;;5054231;28;20202;-58
2023/06/16 07:47:30;;;;;;;4.53;2.90;;;42.60;35.80;;;;;;5053927;28;20211;-61
2023/06/16 07:49:57;;;;;;;8.80;3.53;;;43.10;34.90;;;;;;5053862;28;20205;-61
2023/06/16 07:52:24;;;;;;;5.72;3.40;;;43.40;34.70;;;;;;5053711;28;20209;-62
2023/06/16 07:54:50;;;;;;;3.97;3.10;;;43.10;35.20;;;;;;5053735;28;20228;-62
2023/06/16 07:57:18;;;;;;;3.55;3.05;;;42.70;35.40;;;;;;5053742;28;20611;-62
2023/06/16 07:59:45;;;;;;;4.80;3.00;;;42.90;34.80;;;;;;5054013;28;20205;-61
2023/06/16 08:02:12;;;;;;;5.90;2.85;;;42.90;34.30;;;;;;5053868;28;20247;-62
2023/06/16 08:04:38;;;;;;;6.90;3.00;;;43.20;34.20;;;;;;5053420;28;20201;-62
2023/06/16 08:07:06;;;;;;;4.05;2.85;;;43.50;33.10;;;;;;5053459;28;20564;-60
2023/06/16 08:09:32;;;;;;;6.00;2.92;;;43.60;32.70;;;;;;5053985;28;20212;-63
2023/06/16 08:11:59;;;;;;;4.03;2.97;;;42.90;33.70;;;;;;5053656;28;20209;-59
2023/06/16 08:14:30;;;;;;;4.55;2.80;;;43.10;33.70;;;;;;5053499;28;20236;-59
2023/06/16 08:16:56;;;;;;;4.65;3.22;;;43.50;33.70;;;;;;5053054;28;20216;-60
2023/06/16 08:19:23;;;;;;;4.10;3.15;;;43.90;34.00;;;;;;5053493;28;20205;-59
2023/06/16 08:21:50;;;;;;;5.78;3.10;;;43.50;32.30;;;;;;5053174;28;20651;-61
2023/06/16 08:24:16;;;;;;;3.58;2.78;;;43.10;33.40;;;;;;5053164;28;20687;-63
2023/06/16 08:26:44;;;;;;;5.93;3.22;;;42.90;32.60;;;;;;5053263;28;20251;-58
2023/06/16 08:29:12;;;;;;;5.18;3.10;;;42.40;33.30;;;;;;5052865;28;20213;-61
2023/06/16 08:31:40;;;;;;;6.03;2.92;;;42.50;33.20;;;;;;5052863;28;20201;-59
2023/06/16 08:34:08;;;;;;;7.15;2.78;;;43.10;32.80;;;;;;5053071;28;20236;-61
2023/06/16 08:36:34;;;;;;;4.60;3.15;;;43.60;31.10;;;;;;5052898;28;20201;-59
2023/06/16 08:39:02;;;;;;;4.97;2.80;;;43.90;32.20;;;;;;5053494;28;20223;-61
2023/06/16 08:41:29;;;;;;;5.18;3.10;;;43.10;32.90;;;;;;5053008;28;20205;-59
2023/06/16 08:43:59;;;;;;;7.75;3.08;;;42.60;32.90;;;;;;5053080;28;20221;-56
2023/06/16 08:46:26;;;;;;;4.28;2.85;;;42.50;32.70;;;;;;5052452;28;20205;-61
2023/06/16 08:48:54;;;;;;;5.22;2.78;;;42.50;31.90;;;;;;5053431;28;20201;-61
2023/06/16 08:51:24;;;;;;;4.13;2.72;;;41.90;31.50;;;;;;5053159;28;20205;-60
2023/06/16 08:53:57;;;;;;;3.50;2.65;;;41.00;32.20;;;;;;5052620;28;20592;-59
2023/06/16 08:56:26;;;;;;;3.67;3.05;;;39.30;32.40;;;;;;5052669;28;20300;-63
2023/06/16 08:58:53;;;;;;;6.93;2.97;;;37.30;35.50;;;;;;5052668;28;20644;-60
2023/06/16 09:01:21;;;;;;;5.15;3.08;;;35.10;36.20;;;;;;5053250;28;20209;-61
2023/06/16 09:03:49;;;;;;;3.95;2.75;;;33.20;37.40;;;;;;5053074;28;20232;-62
2023/06/16 09:06:17;;;;;;;4.47;2.85;;;31.80;39.20;;;;;;5052204;28;20210;-61
2023/06/16 09:08:44;;;;;;;6.30;2.80;;;30.90;40.40;;;;;;5052731;28;20221;-62
2023/06/16 09:11:10;;;;;;;4.68;2.67;;;30.20;38.20;;;;;;5052589;28;20206;-62
2023/06/16 09:13:42;;;;;;;3.45;2.83;;;29.40;37.60;;;;;;5052746;28;20225;-62
2023/06/16 09:16:09;;;;;;;5.35;3.03;;;28.80;39.20;;;;;;5052556;28;20297;-60
2023/06/16 09:18:40;;;;;;;6.85;2.97;;;28.50;40.40;;;;;;5052449;28;20228;-60
2023/06/16 09:21:09;;;;;;;3.92;2.92;;;28.20;41.50;;;;;;5051912;28;20206;-60
2023/06/16 09:23:37;;;;;;;4.13;2.70;;;27.80;41.60;;;;;;5044508;28;20711;-58
2023/06/16 09:26:12;;;;;;;4.13;3.05;;;27.50;42.60;;;;;;5051819;28;20202;-62
2023/06/16 09:28:39;;;;;;;5.30;3.00;;;27.30;44.00;;;;;;5052542;28;20646;-64
2023/06/16 09:31:07;;;;;;;4.47;2.50;;;27.00;42.90;;;;;;5050824;28;20259;-62
2023/06/16 09:33:33;;;;;;;5.97;2.80;;;27.00;43.40;;;;;;5051773;28;20222;-56
2023/06/16 09:36:01;;;;;;;6.53;2.72;;;26.90;43.90;;;;;;5052003;28;20206;-57
2023/06/16 09:38:35;;;;;;;3.75;2.67;;;27.00;43.40;;;;;;5052207;28;20562;-56
2023/06/16 09:41:10;;;;;;;4.35;3.40;;;27.00;44.00;;;;;;5051501;28;20278;-56
2023/06/16 09:43:38;;;;;;;5.03;2.80;;;27.10;43.70;;;;;;5052063;28;20231;-55
2023/06/16 09:46:09;;;;;;;6.68;2.83;;;27.00;44.30;;;;;;5051593;28;20237;-57
2023/06/16 09:48:44;;;;;;;6.25;2.97;;;27.10;45.20;;;;;;5051934;28;20210;-56
2023/06/16 09:51:11;;;;;;;4.40;2.67;;;27.10;44.40;;;;;;5052045;28;20283;-59
2023/06/16 09:53:40;;;;;;;5.53;3.13;;;27.10;44.90;;;;;;5051649;28;20295;-55
2023/06/16 09:56:08;;;;;;;3.97;2.97;;;27.20;45.00;;;;;;5051620;28;20206;-54
2023/06/16 09:58:35;;;;;;;5.35;3.25;;;27.30;45.00;;;;;;5051764;28;20671;-56
2023/06/16 10:01:02;;;;;;;6.90;3.08;;;27.30;45.20;;;;;;5051819;28;20212;-55
2023/06/16 10:03:31;;;;;;;4.93;2.88;;;27.30;45.80;;;;;;5051637;28;20746;-58
2023/06/16 10:06:05;;;;;;;7.47;2.85;;;27.40;45.00;;;;;;5051056;28;20232;-57
2023/06/16 10:08:33;;;;;;;8.70;3.00;;;27.30;43.90;;;;;;5051780;28;20675;-57
2023/06/16 10:11:01;;;;;;;3.45;2.60;;;27.10;43.80;;;;;;5052046;28;20237;-56
2023/06/16 10:13:31;;;;;;;3.42;2.90;;;27.00;43.70;;;;;;5052054;28;20516;-55
2023/06/16 10:16:00;;;;;;;5.22;2.85;;;27.00;43.90;;;;;;5051273;28;20329;-57
2023/06/16 10:18:27;;;;;;;5.18;2.92;;;27.00;43.40;;;;;;5051384;28;20212;-56
2023/06/16 10:20:54;;;;;;;5.85;2.92;;;27.10;43.20;;;;;;5051474;28;20201;-57
2023/06/16 10:23:21;;;;;;;5.95;3.20;;;27.00;43.30;;;;;;5051431;28;20233;-56
2023/06/16 10:25:47;;;;;;;6.50;2.83;;;26.90;43.80;;;;;;5051401;28;20205;-59
2023/06/16 10:28:15;;;;;;;9.05;3.45;;;26.80;44.30;;;;;;5051573;28;20210;-57
2023/06/16 10:30:44;;;;;;;6.78;2.92;;;26.60;45.00;;;;;;5050875;28;20248;-56
2023/06/16 10:33:21;;;;;;;5.68;2.95;;;26.60;44.30;;;;;;5051643;28;20226;-57
2023/06/16 10:35:53;;;;;;;6.55;3.00;;;26.60;45.00;;;;;;5050919;28;20251;-59
2023/06/16 10:38:25;;;;;;;4.78;2.90;;;26.50;46.10;;;;;;5051237;28;20671;-57
2023/06/16 10:40:56;;;;;;;4.05;3.08;;;26.40;46.20;;;;;;5050991;28;20227;-57
2023/06/16 10:43:26;;;;;;;8.85;3.53;;;26.50;45.90;;;;;;5051005;28;20287;-57
2023/06/16 10:46:15;;;;;;;4.63;3.03;;;26.70;45.90;;;;;;5051056;28;20233;-57
2023/06/16 10:48:56;;;;;;;5.00;3.17;;;27.00;45.10;;;;;;5051432;28;20221;-56
2023/06/16 10:51:41;;;;;;;5.20;2.88;;;27.40;44.90;;;;;;5051961;28;20221;-58
2023/06/16 10:54:09;;;;;;;6.03;2.80;;;27.60;44.50;;;;;;5055207;28;20279;-61
2023/06/16 10:57:03;;;;;;;7.53;3.20;;;27.50;44.10;;;;;;5054808;28;20209;-58
2023/06/16 10:59:31;;;;;;;5.07;3.17;;;27.40;43.90;;;;;;5052676;28;20206;-58
2023/06/16 11:01:59;;;;;;;7.13;3.03;;;27.40;44.00;;;;;;5055765;28;20322;-59
2023/06/16 11:04:26;;;;;;;5.22;3.08;;;27.30;43.80;;;;;;5055253;28;20222;-58
2023/06/16 11:07:11;;;;;;;5.53;3.03;;;27.30;43.00;;;;;;5054628;28;20209;-57
2023/06/16 11:09:38;;;;;;;4.00;3.00;;;27.40;42.70;;;;;;5055300;28;20292;-59
2023/06/16 11:12:07;;;;;;;4.40;3.05;;;27.50;42.80;;;;;;5054835;28;20207;-58
2023/06/16 11:14:34;;;;;;;4.05;2.75;;;27.70;42.40;;;;;;5054857;28;20307;-59
2023/06/16 11:17:06;;;;;;;4.70;3.20;;;27.70;42.20;;;;;;5055208;28;20285;-59
2023/06/16 11:19:32;;;;;;;5.95;3.47;;;27.60;42.10;;;;;;5054763;28;20217;-62
2023/06/16 11:22:02;;;;;;;5.82;3.17;;;27.70;42.70;;;;;;5054645;28;20596;-59
2023/06/16 11:24:32;;;;;;;6.78;3.00;;;27.80;42.90;;;;;;5054455;28;20734;-61
2023/06/16 11:27:00;;;;;;;4.75;3.30;;;28.00;42.40;;;;;;5054212;28;20279;-57
2023/06/16 11:29:28;;;;;;;4.78;3.45;;;28.20;41.90;;;;;;5054578;28;20206;-59
2023/06/16 11:31:59;;;;;;;6.18;3.35;;;28.10;42.40;;;;;;5054461;28;20209;-58
2023/06/16 11:34:27;;;;;;;7.45;2.90;;;28.10;42.40;;;;;;5054651;28;20225;-56
2023/06/16 11:36:54;;;;;;;3.88;2.90;;;28.30;42.20;;;;;;5054278;28;20244;-57
2023/06/16 11:39:20;;;;;;;3.72;2.90;;;28.50;42.60;;;;;;5054230;28;20213;-56
2023/06/16 11:41:47;;;;;;;6.15;3.38;;;28.60;42.20;;;;;;5054470;28;20327;-58
2023/06/16 11:44:14;;;;;;;3.88;2.97;;;28.70;41.70;;;;;;5054236;28;20596;-57
2023/06/16 11:46:41;;;;;;;6.55;3.08;;;28.70;42.10;;;;;;5054341;28;20620;-59
2023/06/16 11:49:08;;;;;;;4.78;2.90;;;28.70;42.70;;;;;;5053946;28;20670;-57
2023/06/16 11:51:37;;;;;;;6.22;3.47;;;28.50;42.00;;;;;;5053837;28;20595;-58
2023/06/16 11:54:04;;;;;;;4.03;3.08;;;28.20;42.10;;;;;;5054107;28;20793;-57
2023/06/16 11:56:33;;;;;;;6.47;3.15;;;28.10;42.50;;;;;;5053440;28;20675;-57
2023/06/16 11:59:03;;;;;;;4.47;3.42;;;27.90;42.50;;;;;;5054010;28;20668;-58
2023/06/16 12:01:30;;;;;;;3.83;2.80;;;27.80;42.60;;;;;;5054485;28;20312;-58
2023/06/16 12:03:58;;;;;;;3.70;2.90;;;27.90;43.10;;;;;;5053352;28;20229;-58
2023/06/16 12:06:26;;;;;;;3.72;3.03;;;28.10;43.40;;;;;;5053858;28;20240;-59
2023/06/16 12:08:55;;;;;;;7.40;3.20;;;28.40;42.60;;;;;;5053714;28;20225;-59
2023/06/16 12:11:27;;;;;;;7.88;3.08;;;28.60;42.80;;;;;;5054306;28;20591;-58
2023/06/16 12:13:55;;;;;;;5.45;3.30;;;29.00;41.90;;;;;;5054009;28;20297;-57
2023/06/16 12:16:22;;;;;;;5.90;3.45;;;29.30;40.00;;;;;;5053349;28;20237;-57
2023/06/16 12:18:50;;;;;;;8.68;3.78;;;29.40;40.10;;;;;;5053617;28;20216;-56
2023/06/16 12:21:18;;;;;;;7.20;3.22;;;29.70;39.90;;;;;;5053510;28;20237;-57
2023/06/16 12:23:54;;;;;;;5.80;3.10;;;30.00;39.20;;;;;;5053251;28;20244;-57
2023/06/16 12:26:28;;;;;;;4.78;3.30;;;30.20;39.60;;;;;;5053056;28;20201;-62
2023/06/16 12:28:56;;;;;;;4.03;3.20;;;30.10;39.00;;;;;;5053532;28;20205;-54
2023/06/16 12:31:26;;;;;;;6.43;3.35;;;30.10;39.50;;;;;;5053319;28;20209;-54
2023/06/16 12:33:53;;;;;;;5.13;3.88;;;30.40;39.30;;;;;;5053809;28;20238;-54
2023/06/16 12:36:20;;;;;;;4.90;3.40;;;30.80;39.50;;;;;;5053492;28;20227;-55
2023/06/16 12:38:47;;;;;;;5.20;3.22;;;31.20;38.90;;;;;;5053516;28;20209;-54
2023/06/16 12:41:16;;;;;;;4.75;3.50;;;31.40;38.90;;;;;;5053512;28;20205;-53
2023/06/16 12:43:50;;;;;;;4.40;3.08;;;31.60;39.00;;;;;;5053243;28;20308;-54
2023/06/16 12:46:18;;;;;;;6.28;3.33;;;31.50;39.50;;;;;;5053349;28;20316;-54
2023/06/16 12:48:45;;;;;;;3.70;3.13;;;31.40;39.90;;;;;;5053665;28;20213;-54
2023/06/16 12:51:12;;;;;;;4.55;3.20;;;31.40;40.00;;;;;;5053534;28;20625;-54
2023/06/16 12:53:41;;;;;;;5.68;3.17;;;31.20;39.50;;;;;;5053148;28;20225;-54